sensor_id;sensor_type;location;lat;lon;timestamp;P1;durP1;ratioP1;P2;durP2;ratioP2
21030;SDS011;61072;47.808;7.636;2022-11-06T07:21:41;6.80;;;4.65;;
21030;SDS011;61072;47.808;7.636;2022-11-06T07:24:08;7.60;;;5.50;;
21030;SDS011;61072;47.808;7.636;2022-11-06T07:26:35;4.93;;;3.42;;
21030;SDS011;61072;47.808;7.636;2022-11-06T07:29:01;5.00;;;3.80;;
21030;SDS011;61072;47.808;7.636;2022-11-06T07:31:29;5.25;;;3.92;;
21030;SDS011;61072;47.808;7.636;2022-11-06T07:33:56;16.00;;;5.03;;
21030;SDS011;61072;47.808;7.636;2022-11-06T07:36:22;8.25;;;5.20;;
21030;SDS011;61072;47.808;7.636;2022-11-06T07:38:49;9.65;;;6.68;;
21030;SDS011;61072;47.808;7.636;2022-11-06T07:41:16;11.00;;;7.22;;
21030;SDS011;61072;47.808;7.636;2022-11-06T07:43:43;14.13;;;8.10;;
21030;SDS011;61072;47.808;7.636;2022-11-06T07:46:10;13.10;;;9.02;;
21030;SDS011;61072;47.808;7.636;2022-11-06T07:48:38;11.82;;;7.90;;
21030;SDS011;61072;47.808;7.636;2022-11-06T07:51:06;15.35;;;8.07;;
21030;SDS011;61072;47.808;7.636;2022-11-06T07:53:34;15.02;;;8.63;;
21030;SDS011;61072;47.808;7.636;2022-11-06T07:56:01;17.48;;;10.43;;
21030;SDS011;61072;47.808;7.636;2022-11-06T07:58:28;17.45;;;10.20;;
21030;SDS011;61072;47.808;7.636;2022-11-06T08:00:55;17.08;;;10.48;;
21030;SDS011;61072;47.808;7.636;2022-11-06T08:03:23;18.65;;;11.20;;
21030;SDS011;61072;47.808;7.636;2022-11-06T08:05:50;13.45;;;9.13;;
21030;SDS011;61072;47.808;7.636;2022-11-06T08:08:17;17.50;;;10.10;;
21030;SDS011;61072;47.808;7.636;2022-11-06T08:10:44;13.20;;;7.78;;
21030;SDS011;61072;47.808;7.636;2022-11-06T08:13:13;15.40;;;8.18;;
21030;SDS011;61072;47.808;7.636;2022-11-06T08:15:42;14.85;;;7.40;;
21030;SDS011;61072;47.808;7.636;2022-11-06T08:18:10;15.48;;;7.72;;
21030;SDS011;61072;47.808;7.636;2022-11-06T08:20:38;12.13;;;6.65;;
21030;SDS011;61072;47.808;7.636;2022-11-06T08:23:05;10.88;;;7.20;;
21030;SDS011;61072;47.808;7.636;2022-11-06T08:25:33;10.70;;;6.57;;
21030;SDS011;61072;47.808;7.636;2022-11-06T08:28:00;8.35;;;6.38;;
21030;SDS011;61072;47.808;7.636;2022-11-06T08:30:28;12.23;;;7.20;;
21030;SDS011;61072;47.808;7.636;2022-11-06T08:32:58;11.23;;;6.65;;
21030;SDS011;61072;47.808;7.636;2022-11-06T08:35:27;13.23;;;6.88;;
21030;SDS011;61072;47.808;7.636;2022-11-06T08:37:54;12.02;;;6.25;;
21030;SDS011;61072;47.808;7.636;2022-11-06T08:40:21;9.93;;;7.70;;
21030;SDS011;61072;47.808;7.636;2022-11-06T08:42:59;10.80;;;6.90;;
21030;SDS011;61072;47.808;7.636;2022-11-06T08:45:27;8.98;;;6.60;;
21030;SDS011;61072;47.808;7.636;2022-11-06T08:47:54;8.68;;;6.30;;
21030;SDS011;61072;47.808;7.636;2022-11-06T08:50:25;9.90;;;6.63;;
21030;SDS011;61072;47.808;7.636;2022-11-06T08:52:54;11.00;;;6.35;;
21030;SDS011;61072;47.808;7.636;2022-11-06T08:55:22;11.40;;;6.63;;
21030;SDS011;61072;47.808;7.636;2022-11-06T08:57:49;9.93;;;6.10;;
21030;SDS011;61072;47.808;7.636;2022-11-06T09:00:16;6.95;;;4.63;;
21030;SDS011;61072;47.808;7.636;2022-11-06T09:02:43;8.23;;;4.63;;
21030;SDS011;61072;47.808;7.636;2022-11-06T09:05:09;9.50;;;5.43;;
21030;SDS011;61072;47.808;7.636;2022-11-06T09:07:36;12.68;;;5.10;;
21030;SDS011;61072;47.808;7.636;2022-11-06T09:10:03;6.45;;;5.07;;
21030;SDS011;61072;47.808;7.636;2022-11-06T09:12:30;10.52;;;5.28;;
21030;SDS011;61072;47.808;7.636;2022-11-06T09:14:56;6.00;;;4.85;;
21030;SDS011;61072;47.808;7.636;2022-11-06T09:17:23;7.22;;;5.00;;
21030;SDS011;61072;47.808;7.636;2022-11-06T09:19:50;9.27;;;5.57;;
21030;SDS011;61072;47.808;7.636;2022-11-06T09:22:17;8.85;;;5.93;;
21030;SDS011;61072;47.808;7.636;2022-11-06T09:24:44;8.40;;;5.85;;
21030;SDS011;61072;47.808;7.636;2022-11-06T09:27:29;6.15;;;4.38;;
21030;SDS011;61072;47.808;7.636;2022-11-06T09:29:55;8.52;;;5.25;;
21030;SDS011;61072;47.808;7.636;2022-11-06T09:32:22;11.18;;;6.03;;
21030;SDS011;61072;47.808;7.636;2022-11-06T09:34:49;11.63;;;6.55;;
21030;SDS011;61072;47.808;7.636;2022-11-06T09:37:16;12.73;;;7.25;;
21030;SDS011;61072;47.808;7.636;2022-11-06T09:39:43;8.27;;;4.70;;
21030;SDS011;61072;47.808;7.636;2022-11-06T09:45:13;7.03;;;4.38;;
21030;SDS011;61072;47.808;7.636;2022-11-06T09:47:43;7.22;;;3.85;;
21030;SDS011;61072;47.808;7.636;2022-11-06T09:50:16;4.68;;;3.63;;
21030;SDS011;61072;47.808;7.636;2022-11-06T09:52:49;6.50;;;3.60;;
21030;SDS011;61072;47.808;7.636;2022-11-06T09:57:56;6.70;;;3.47;;
21030;SDS011;61072;47.808;7.636;2022-11-06T10:00:26;6.93;;;3.50;;
21030;SDS011;61072;47.808;7.636;2022-11-06T10:02:57;6.22;;;3.97;;
21030;SDS011;61072;47.808;7.636;2022-11-06T10:05:31;4.78;;;3.17;;
21030;SDS011;61072;47.808;7.636;2022-11-06T10:08:04;7.80;;;3.17;;
21030;SDS011;61072;47.808;7.636;2022-11-06T10:10:41;7.57;;;3.30;;
21030;SDS011;61072;47.808;7.636;2022-11-06T10:20:59;6.32;;;4.00;;
21030;SDS011;61072;47.808;7.636;2022-11-06T10:26:36;6.32;;;3.88;;
21030;SDS011;61072;47.808;7.636;2022-11-06T10:34:41;6.63;;;3.97;;
21030;SDS011;61072;47.808;7.636;2022-11-06T10:37:14;11.48;;;5.28;;
21030;SDS011;61072;47.808;7.636;2022-11-06T10:39:46;9.77;;;5.53;;
21030;SDS011;61072;47.808;7.636;2022-11-06T10:44:50;10.27;;;5.40;;
21030;SDS011;61072;47.808;7.636;2022-11-06T10:47:34;8.57;;;4.97;;
21030;SDS011;61072;47.808;7.636;2022-11-06T10:50:10;7.43;;;4.65;;
21030;SDS011;61072;47.808;7.636;2022-11-06T10:55:58;9.82;;;5.53;;
21030;SDS011;61072;47.808;7.636;2022-11-06T10:58:36;8.85;;;4.78;;
21030;SDS011;61072;47.808;7.636;2022-11-06T11:01:03;7.53;;;5.32;;
21030;SDS011;61072;47.808;7.636;2022-11-06T11:03:33;10.68;;;5.72;;
21030;SDS011;61072;47.808;7.636;2022-11-06T11:06:02;7.25;;;4.93;;
21030;SDS011;61072;47.808;7.636;2022-11-06T11:11:31;9.07;;;5.97;;
21030;SDS011;61072;47.808;7.636;2022-11-06T11:16:28;10.57;;;6.37;;
21030;SDS011;61072;47.808;7.636;2022-11-06T11:19:13;13.63;;;6.82;;
21030;SDS011;61072;47.808;7.636;2022-11-06T11:22:00;7.05;;;5.43;;
21030;SDS011;61072;47.808;7.636;2022-11-06T11:25:03;9.25;;;5.88;;
21030;SDS011;61072;47.808;7.636;2022-11-06T11:27:34;9.82;;;6.25;;
21030;SDS011;61072;47.808;7.636;2022-11-06T11:30:18;8.32;;;5.68;;
21030;SDS011;61072;47.808;7.636;2022-11-06T11:32:48;8.82;;;5.70;;
21030;SDS011;61072;47.808;7.636;2022-11-06T11:35:16;8.50;;;5.22;;
21030;SDS011;61072;47.808;7.636;2022-11-06T11:37:46;10.00;;;5.78;;
21030;SDS011;61072;47.808;7.636;2022-11-06T11:46:27;7.95;;;4.80;;
21030;SDS011;61072;47.808;7.636;2022-11-06T11:48:42;6.60;;;5.00;;
21030;SDS011;61072;47.808;7.636;2022-11-06T11:53:47;8.70;;;5.30;;
21030;SDS011;61072;47.808;7.636;2022-11-06T11:56:18;8.82;;;5.07;;
21030;SDS011;61072;47.808;7.636;2022-11-06T11:59:11;8.25;;;5.15;;
21030;SDS011;61072;47.808;7.636;2022-11-06T12:01:45;7.70;;;4.70;;
21030;SDS011;61072;47.808;7.636;2022-11-06T12:04:21;9.23;;;4.85;;
21030;SDS011;61072;47.808;7.636;2022-11-06T12:06:53;7.03;;;5.03;;
21030;SDS011;61072;47.808;7.636;2022-11-06T12:09:23;7.63;;;5.03;;
21030;SDS011;61072;47.808;7.636;2022-11-06T12:11:52;9.00;;;5.05;;
21030;SDS011;61072;47.808;7.636;2022-11-06T12:16:54;6.20;;;4.53;;
21030;SDS011;61072;47.808;7.636;2022-11-06T12:19:27;7.55;;;4.85;;
21030;SDS011;61072;47.808;7.636;2022-11-06T12:21:59;8.00;;;4.72;;
21030;SDS011;61072;47.808;7.636;2022-11-06T12:24:41;5.78;;;4.72;;
21030;SDS011;61072;47.808;7.636;2022-11-06T12:27:18;8.05;;;5.13;;
21030;SDS011;61072;47.808;7.636;2022-11-06T12:30:06;5.95;;;4.93;;
21030;SDS011;61072;47.808;7.636;2022-11-06T12:35:45;7.30;;;4.60;;
21030;SDS011;61072;47.808;7.636;2022-11-06T12:43:50;5.93;;;4.10;;
21030;SDS011;61072;47.808;7.636;2022-11-06T12:46:23;6.57;;;4.85;;
21030;SDS011;61072;47.808;7.636;2022-11-06T12:57:42;7.57;;;4.63;;
21030;SDS011;61072;47.808;7.636;2022-11-06T13:00:23;7.03;;;4.95;;
21030;SDS011;61072;47.808;7.636;2022-11-06T13:06:00;8.00;;;4.95;;
21030;SDS011;61072;47.808;7.636;2022-11-06T13:08:42;5.50;;;4.15;;
21030;SDS011;61072;47.808;7.636;2022-11-06T13:14:35;11.15;;;4.75;;
21030;SDS011;61072;47.808;7.636;2022-11-06T13:17:29;5.70;;;3.90;;
21030;SDS011;61072;47.808;7.636;2022-11-06T13:20:18;5.72;;;4.13;;
21030;SDS011;61072;47.808;7.636;2022-11-06T13:22:53;7.07;;;4.75;;
21030;SDS011;61072;47.808;7.636;2022-11-06T13:26:05;7.10;;;5.05;;
21030;SDS011;61072;47.808;7.636;2022-11-06T13:31:07;9.32;;;4.63;;
21030;SDS011;61072;47.808;7.636;2022-11-06T13:33:46;6.77;;;4.10;;
21030;SDS011;61072;47.808;7.636;2022-11-06T13:38:48;6.20;;;4.53;;
21030;SDS011;61072;47.808;7.636;2022-11-06T13:41:27;7.82;;;4.13;;
21030;SDS011;61072;47.808;7.636;2022-11-06T13:43:57;6.38;;;4.60;;
21030;SDS011;61072;47.808;7.636;2022-11-06T13:46:47;5.80;;;3.80;;
21030;SDS011;61072;47.808;7.636;2022-11-06T13:49:26;7.70;;;4.05;;
21030;SDS011;61072;47.808;7.636;2022-11-06T13:52:37;8.93;;;4.80;;
21030;SDS011;61072;47.808;7.636;2022-11-06T13:55:22;5.70;;;4.22;;
21030;SDS011;61072;47.808;7.636;2022-11-06T13:58:16;6.93;;;4.40;;
21030;SDS011;61072;47.808;7.636;2022-11-06T14:01:06;6.25;;;4.32;;
21030;SDS011;61072;47.808;7.636;2022-11-06T14:06:38;5.32;;;4.30;;
21030;SDS011;61072;47.808;7.636;2022-11-06T14:09:12;7.75;;;4.38;;
21030;SDS011;61072;47.808;7.636;2022-11-06T14:11:44;9.32;;;4.82;;
21030;SDS011;61072;47.808;7.636;2022-11-06T14:19:39;7.32;;;4.78;;
21030;SDS011;61072;47.808;7.636;2022-11-06T14:22:16;8.57;;;5.32;;
21030;SDS011;61072;47.808;7.636;2022-11-06T14:24:53;10.18;;;5.57;;
21030;SDS011;61072;47.808;7.636;2022-11-06T14:29:54;9.25;;;4.65;;
21030;SDS011;61072;47.808;7.636;2022-11-06T14:34:56;13.52;;;5.97;;
21030;SDS011;61072;47.808;7.636;2022-11-06T14:37:46;7.82;;;5.10;;
21030;SDS011;61072;47.808;7.636;2022-11-06T14:40:14;9.35;;;5.28;;
21030;SDS011;61072;47.808;7.636;2022-11-06T14:42:41;6.78;;;5.03;;
21030;SDS011;61072;47.808;7.636;2022-11-06T14:45:18;9.15;;;5.32;;
21030;SDS011;61072;47.808;7.636;2022-11-06T14:47:51;6.75;;;5.30;;
21030;SDS011;61072;47.808;7.636;2022-11-06T14:50:27;9.38;;;5.38;;
21030;SDS011;61072;47.808;7.636;2022-11-06T14:53:03;7.45;;;5.07;;
21030;SDS011;61072;47.808;7.636;2022-11-06T14:55:44;9.60;;;5.40;;
21030;SDS011;61072;47.808;7.636;2022-11-06T14:58:23;7.90;;;4.38;;
21030;SDS011;61072;47.808;7.636;2022-11-06T15:01:01;7.88;;;5.20;;
21030;SDS011;61072;47.808;7.636;2022-11-06T15:03:51;8.68;;;4.78;;
21030;SDS011;61072;47.808;7.636;2022-11-06T15:08:56;8.52;;;5.28;;
21030;SDS011;61072;47.808;7.636;2022-11-06T15:19:06;8.25;;;5.68;;
21030;SDS011;61072;47.808;7.636;2022-11-06T15:21:43;9.10;;;5.97;;
21030;SDS011;61072;47.808;7.636;2022-11-06T15:24:20;9.25;;;6.30;;
21030;SDS011;61072;47.808;7.636;2022-11-06T15:26:51;8.57;;;6.25;;
21030;SDS011;61072;47.808;7.636;2022-11-06T15:29:25;10.80;;;6.13;;
21030;SDS011;61072;47.808;7.636;2022-11-06T15:32:31;7.97;;;6.20;;
21030;SDS011;61072;47.808;7.636;2022-11-06T15:35:02;13.45;;;8.25;;
21030;SDS011;61072;47.808;7.636;2022-11-06T15:37:44;20.13;;;10.10;;
21030;SDS011;61072;47.808;7.636;2022-11-06T15:42:59;16.10;;;10.75;;
21030;SDS011;61072;47.808;7.636;2022-11-06T15:45:30;12.50;;;9.00;;
21030;SDS011;61072;47.808;7.636;2022-11-06T15:47:58;8.50;;;6.40;;
21030;SDS011;61072;47.808;7.636;2022-11-06T15:50:27;10.00;;;6.03;;
21030;SDS011;61072;47.808;7.636;2022-11-06T15:52:54;9.32;;;6.05;;
21030;SDS011;61072;47.808;7.636;2022-11-06T15:55:43;10.57;;;6.47;;
21030;SDS011;61072;47.808;7.636;2022-11-06T16:00:43;9.48;;;5.95;;
21030;SDS011;61072;47.808;7.636;2022-11-06T16:03:17;9.75;;;5.15;;
21030;SDS011;61072;47.808;7.636;2022-11-06T16:05:49;7.68;;;5.65;;
21030;SDS011;61072;47.808;7.636;2022-11-06T16:08:17;12.25;;;5.80;;
21030;SDS011;61072;47.808;7.636;2022-11-06T16:10:46;9.43;;;5.57;;
21030;SDS011;61072;47.808;7.636;2022-11-06T16:13:14;14.27;;;12.43;;
21030;SDS011;61072;47.808;7.636;2022-11-06T16:15:46;13.20;;;11.00;;
21030;SDS011;61072;47.808;7.636;2022-11-06T16:18:24;10.27;;;7.55;;
21030;SDS011;61072;47.808;7.636;2022-11-06T16:23:30;13.85;;;9.05;;
21030;SDS011;61072;47.808;7.636;2022-11-06T16:26:08;14.48;;;10.25;;
21030;SDS011;61072;47.808;7.636;2022-11-06T16:28:42;13.13;;;10.35;;
21030;SDS011;61072;47.808;7.636;2022-11-06T16:31:15;16.48;;;9.00;;
21030;SDS011;61072;47.808;7.636;2022-11-06T16:34:44;14.98;;;9.30;;
21030;SDS011;61072;47.808;7.636;2022-11-06T16:37:01;12.82;;;7.93;;
21030;SDS011;61072;47.808;7.636;2022-11-06T16:39:58;11.38;;;7.38;;
21030;SDS011;61072;47.808;7.636;2022-11-06T16:42:28;7.32;;;5.63;;
21030;SDS011;61072;47.808;7.636;2022-11-06T16:45:02;10.60;;;5.68;;
21030;SDS011;61072;47.808;7.636;2022-11-06T16:47:41;10.25;;;6.15;;
21030;SDS011;61072;47.808;7.636;2022-11-06T16:53:11;3.50;;;2.45;;
21030;SDS011;61072;47.808;7.636;2022-11-06T16:55:43;4.82;;;3.10;;
21030;SDS011;61072;47.808;7.636;2022-11-06T16:58:17;5.90;;;3.78;;
21030;SDS011;61072;47.808;7.636;2022-11-06T17:00:43;5.85;;;2.55;;
21030;SDS011;61072;47.808;7.636;2022-11-06T17:03:20;2.47;;;1.60;;
21030;SDS011;61072;47.808;7.636;2022-11-06T17:06:11;3.55;;;2.40;;
21030;SDS011;61072;47.808;7.636;2022-11-06T17:08:55;1.90;;;1.40;;
21030;SDS011;61072;47.808;7.636;2022-11-06T17:11:34;4.03;;;1.90;;
21030;SDS011;61072;47.808;7.636;2022-11-06T17:14:02;2.58;;;1.80;;
21030;SDS011;61072;47.808;7.636;2022-11-06T17:16:46;2.95;;;1.98;;
21030;SDS011;61072;47.808;7.636;2022-11-06T17:19:24;5.80;;;3.60;;
21030;SDS011;61072;47.808;7.636;2022-11-06T17:21:51;4.93;;;3.95;;
21030;SDS011;61072;47.808;7.636;2022-11-06T17:24:18;7.50;;;5.65;;
21030;SDS011;61072;47.808;7.636;2022-11-06T17:27:04;3.28;;;1.75;;
21030;SDS011;61072;47.808;7.636;2022-11-06T17:29:31;3.13;;;2.38;;
21030;SDS011;61072;47.808;7.636;2022-11-06T17:32:01;6.03;;;4.57;;
21030;SDS011;61072;47.808;7.636;2022-11-06T17:34:28;3.78;;;2.70;;
21030;SDS011;61072;47.808;7.636;2022-11-06T17:36:54;3.83;;;2.75;;
21030;SDS011;61072;47.808;7.636;2022-11-06T17:39:21;4.35;;;2.60;;
21030;SDS011;61072;47.808;7.636;2022-11-06T17:41:48;3.95;;;2.72;;
21030;SDS011;61072;47.808;7.636;2022-11-06T17:44:15;5.75;;;3.42;;
21030;SDS011;61072;47.808;7.636;2022-11-06T17:46:43;5.40;;;3.03;;
21030;SDS011;61072;47.808;7.636;2022-11-06T17:49:11;3.50;;;2.78;;
21030;SDS011;61072;47.808;7.636;2022-11-06T17:51:44;4.47;;;3.22;;
21030;SDS011;61072;47.808;7.636;2022-11-06T17:54:33;6.05;;;4.10;;
21030;SDS011;61072;47.808;7.636;2022-11-06T17:57:03;5.82;;;2.70;;
21030;SDS011;61072;47.808;7.636;2022-11-06T17:59:32;3.35;;;2.55;;
21030;SDS011;61072;47.808;7.636;2022-11-06T18:01:59;2.90;;;2.22;;
21030;SDS011;61072;47.808;7.636;2022-11-06T18:04:28;2.20;;;1.92;;
21030;SDS011;61072;47.808;7.636;2022-11-06T18:06:59;2.10;;;1.77;;
21030;SDS011;61072;47.808;7.636;2022-11-06T18:09:26;2.38;;;1.67;;
21030;SDS011;61072;47.808;7.636;2022-11-06T18:11:54;3.42;;;2.70;;
21030;SDS011;61072;47.808;7.636;2022-11-06T18:14:21;1.98;;;1.52;;
21030;SDS011;61072;47.808;7.636;2022-11-06T18:16:49;1.67;;;1.25;;
21030;SDS011;61072;47.808;7.636;2022-11-06T18:19:16;3.20;;;1.13;;
21030;SDS011;61072;47.808;7.636;2022-11-06T18:21:45;3.92;;;1.60;;
21030;SDS011;61072;47.808;7.636;2022-11-06T18:24:11;1.77;;;1.20;;
21030;SDS011;61072;47.808;7.636;2022-11-06T18:26:38;1.17;;;1.08;;
21030;SDS011;61072;47.808;7.636;2022-11-06T18:29:05;1.80;;;1.05;;
21030;SDS011;61072;47.808;7.636;2022-11-06T18:31:33;1.70;;;1.40;;
21030;SDS011;61072;47.808;7.636;2022-11-06T18:34:00;2.17;;;1.45;;
21030;SDS011;61072;47.808;7.636;2022-11-06T18:36:27;4.18;;;1.50;;
21030;SDS011;61072;47.808;7.636;2022-11-06T18:38:54;4.40;;;1.50;;
21030;SDS011;61072;47.808;7.636;2022-11-06T18:41:21;3.13;;;1.60;;
21030;SDS011;61072;47.808;7.636;2022-11-06T18:43:48;2.53;;;1.45;;
21030;SDS011;61072;47.808;7.636;2022-11-06T18:46:17;2.92;;;1.98;;
21030;SDS011;61072;47.808;7.636;2022-11-06T18:48:44;1.85;;;1.45;;
21030;SDS011;61072;47.808;7.636;2022-11-06T18:51:12;2.72;;;1.45;;
21030;SDS011;61072;47.808;7.636;2022-11-06T18:54:00;2.50;;;1.52;;
21030;SDS011;61072;47.808;7.636;2022-11-06T18:56:29;2.15;;;1.48;;
21030;SDS011;61072;47.808;7.636;2022-11-06T18:58:56;2.03;;;1.80;;
21030;SDS011;61072;47.808;7.636;2022-11-06T19:01:24;1.73;;;1.58;;
21030;SDS011;61072;47.808;7.636;2022-11-06T19:03:51;4.72;;;1.70;;
21030;SDS011;61072;47.808;7.636;2022-11-06T19:06:18;4.88;;;2.55;;
21030;SDS011;61072;47.808;7.636;2022-11-06T19:08:45;4.38;;;1.90;;
21030;SDS011;61072;47.808;7.636;2022-11-06T19:11:14;2.53;;;1.92;;
21030;SDS011;61072;47.808;7.636;2022-11-06T19:13:42;2.70;;;1.30;;
21030;SDS011;61072;47.808;7.636;2022-11-06T19:16:13;3.92;;;1.90;;
21030;SDS011;61072;47.808;7.636;2022-11-06T19:18:41;7.65;;;3.33;;
21030;SDS011;61072;47.808;7.636;2022-11-06T19:21:08;4.43;;;2.22;;
21030;SDS011;61072;47.808;7.636;2022-11-06T19:23:37;3.47;;;1.80;;
21030;SDS011;61072;47.808;7.636;2022-11-06T19:26:06;4.28;;;1.10;;
21030;SDS011;61072;47.808;7.636;2022-11-06T19:28:55;2.15;;;1.23;;
21030;SDS011;61072;47.808;7.636;2022-11-06T19:31:23;3.05;;;1.15;;
21030;SDS011;61072;47.808;7.636;2022-11-06T19:33:54;2.85;;;0.80;;
21030;SDS011;61072;47.808;7.636;2022-11-06T19:36:21;2.17;;;1.17;;
21030;SDS011;61072;47.808;7.636;2022-11-06T19:38:50;0.90;;;0.80;;
21030;SDS011;61072;47.808;7.636;2022-11-06T19:41:16;2.90;;;1.25;;
21030;SDS011;61072;47.808;7.636;2022-11-06T19:43:43;1.77;;;1.13;;
21030;SDS011;61072;47.808;7.636;2022-11-06T19:46:10;1.20;;;0.95;;
21030;SDS011;61072;47.808;7.636;2022-11-06T19:48:37;2.72;;;1.00;;
21030;SDS011;61072;47.808;7.636;2022-11-06T19:51:07;1.30;;;1.05;;
21030;SDS011;61072;47.808;7.636;2022-11-06T19:53:35;3.47;;;0.98;;
21030;SDS011;61072;47.808;7.636;2022-11-06T19:56:03;0.90;;;0.80;;
21030;SDS011;61072;47.808;7.636;2022-11-06T19:58:31;0.90;;;0.80;;
21030;SDS011;61072;47.808;7.636;2022-11-06T20:00:58;1.38;;;0.90;;
21030;SDS011;61072;47.808;7.636;2022-11-06T20:03:25;6.00;;;1.45;;
21030;SDS011;61072;47.808;7.636;2022-11-06T20:05:52;1.80;;;1.50;;
21030;SDS011;61072;47.808;7.636;2022-11-06T20:08:19;2.83;;;1.45;;
21030;SDS011;61072;47.808;7.636;2022-11-06T20:10:45;4.32;;;1.30;;
21030;SDS011;61072;47.808;7.636;2022-11-06T20:13:12;1.52;;;0.88;;
21030;SDS011;61072;47.808;7.636;2022-11-06T20:15:39;1.75;;;1.20;;
21030;SDS011;61072;47.808;7.636;2022-11-06T20:18:06;1.20;;;0.90;;
21030;SDS011;61072;47.808;7.636;2022-11-06T20:20:33;1.73;;;1.17;;
21030;SDS011;61072;47.808;7.636;2022-11-06T20:23:01;2.00;;;0.80;;
21030;SDS011;61072;47.808;7.636;2022-11-06T20:25:28;2.50;;;1.20;;
21030;SDS011;61072;47.808;7.636;2022-11-06T20:27:55;1.85;;;1.13;;
21030;SDS011;61072;47.808;7.636;2022-11-06T20:30:22;1.27;;;0.90;;
21030;SDS011;61072;47.808;7.636;2022-11-06T20:32:48;1.00;;;0.90;;
21030;SDS011;61072;47.808;7.636;2022-11-06T20:35:15;1.40;;;1.02;;
21030;SDS011;61072;47.808;7.636;2022-11-06T20:37:44;2.15;;;1.10;;
21030;SDS011;61072;47.808;7.636;2022-11-06T20:40:11;1.70;;;1.00;;
21030;SDS011;61072;47.808;7.636;2022-11-06T20:42:38;2.03;;;1.35;;
21030;SDS011;61072;47.808;7.636;2022-11-06T20:45:05;2.35;;;1.55;;
21030;SDS011;61072;47.808;7.636;2022-11-06T20:47:32;1.75;;;1.33;;
21030;SDS011;61072;47.808;7.636;2022-11-06T20:49:59;1.83;;;1.20;;
21030;SDS011;61072;47.808;7.636;2022-11-06T20:52:26;1.55;;;0.85;;
21030;SDS011;61072;47.808;7.636;2022-11-06T20:54:53;2.08;;;1.17;;
21030;SDS011;61072;47.808;7.636;2022-11-06T20:57:19;2.03;;;1.17;;
21030;SDS011;61072;47.808;7.636;2022-11-06T20:59:46;1.80;;;1.00;;
21030;SDS011;61072;47.808;7.636;2022-11-06T21:02:12;2.40;;;1.00;;
21030;SDS011;61072;47.808;7.636;2022-11-06T21:04:39;1.17;;;0.70;;
21030;SDS011;61072;47.808;7.636;2022-11-06T21:07:06;3.47;;;1.10;;
21030;SDS011;61072;47.808;7.636;2022-11-06T21:09:33;3.17;;;1.67;;
21030;SDS011;61072;47.808;7.636;2022-11-06T21:11:59;4.45;;;2.70;;
21030;SDS011;61072;47.808;7.636;2022-11-06T21:14:26;3.70;;;2.80;;
21030;SDS011;61072;47.808;7.636;2022-11-06T21:16:53;6.30;;;3.85;;
21030;SDS011;61072;47.808;7.636;2022-11-06T21:19:21;6.03;;;4.47;;
21030;SDS011;61072;47.808;7.636;2022-11-06T21:21:49;7.70;;;4.43;;
21030;SDS011;61072;47.808;7.636;2022-11-06T21:24:16;6.68;;;3.90;;
21030;SDS011;61072;47.808;7.636;2022-11-06T21:26:42;7.55;;;4.90;;
21030;SDS011;61072;47.808;7.636;2022-11-06T21:29:09;8.65;;;5.20;;
21030;SDS011;61072;47.808;7.636;2022-11-06T21:31:36;7.45;;;5.22;;
21030;SDS011;61072;47.808;7.636;2022-11-06T21:34:13;8.63;;;5.53;;
21030;SDS011;61072;47.808;7.636;2022-11-06T21:36:40;7.68;;;5.43;;
21030;SDS011;61072;47.808;7.636;2022-11-06T21:39:09;8.32;;;4.80;;
21030;SDS011;61072;47.808;7.636;2022-11-06T21:41:38;6.18;;;4.30;;
21030;SDS011;61072;47.808;7.636;2022-11-06T21:44:05;5.50;;;3.90;;
21030;SDS011;61072;47.808;7.636;2022-11-06T21:46:33;5.68;;;3.92;;
21030;SDS011;61072;47.808;7.636;2022-11-06T21:49:00;4.03;;;2.78;;
21030;SDS011;61072;47.808;7.636;2022-11-06T21:51:27;3.63;;;2.50;;
21030;SDS011;61072;47.808;7.636;2022-11-06T21:53:56;2.25;;;1.60;;
21030;SDS011;61072;47.808;7.636;2022-11-06T21:56:42;4.10;;;2.15;;
21030;SDS011;61072;47.808;7.636;2022-11-06T21:59:10;2.83;;;1.67;;
21030;SDS011;61072;47.808;7.636;2022-11-06T22:01:39;2.15;;;1.42;;
21030;SDS011;61072;47.808;7.636;2022-11-06T22:04:06;1.98;;;1.10;;
21030;SDS011;61072;47.808;7.636;2022-11-06T22:06:34;2.00;;;1.10;;
21030;SDS011;61072;47.808;7.636;2022-11-06T22:09:03;2.25;;;1.23;;
21030;SDS011;61072;47.808;7.636;2022-11-06T22:11:31;2.65;;;1.20;;
21030;SDS011;61072;47.808;7.636;2022-11-06T22:14:03;1.75;;;0.77;;
21030;SDS011;61072;47.808;7.636;2022-11-06T22:16:33;2.45;;;1.10;;
21030;SDS011;61072;47.808;7.636;2022-11-06T22:19:02;1.80;;;1.10;;
21030;SDS011;61072;47.808;7.636;2022-11-06T22:23:59;1.67;;;1.23;;
21030;SDS011;61072;47.808;7.636;2022-11-06T22:26:27;4.55;;;1.10;;
21030;SDS011;61072;47.808;7.636;2022-11-06T22:28:56;1.73;;;0.95;;
21030;SDS011;61072;47.808;7.636;2022-11-06T22:31:25;1.92;;;0.88;;
21030;SDS011;61072;47.808;7.636;2022-11-06T22:33:52;2.85;;;1.00;;
21030;SDS011;61072;47.808;7.636;2022-11-06T22:36:20;3.67;;;0.85;;
21030;SDS011;61072;47.808;7.636;2022-11-06T22:38:48;2.63;;;1.02;;
21030;SDS011;61072;47.808;7.636;2022-11-06T22:41:16;1.70;;;1.05;;
21030;SDS011;61072;47.808;7.636;2022-11-06T22:43:44;2.15;;;1.10;;
21030;SDS011;61072;47.808;7.636;2022-11-06T22:46:12;1.75;;;0.90;;
21030;SDS011;61072;47.808;7.636;2022-11-06T22:48:41;3.17;;;0.90;;
21030;SDS011;61072;47.808;7.636;2022-11-06T22:51:12;2.10;;;1.20;;
21030;SDS011;61072;47.808;7.636;2022-11-06T22:53:41;1.05;;;0.95;;
21030;SDS011;61072;47.808;7.636;2022-11-06T22:56:08;2.90;;;1.08;;
21030;SDS011;61072;47.808;7.636;2022-11-06T22:58:35;2.17;;;1.20;;
21030;SDS011;61072;47.808;7.636;2022-11-06T23:01:01;1.45;;;0.90;;
21030;SDS011;61072;47.808;7.636;2022-11-06T23:03:29;1.35;;;0.93;;
21030;SDS011;61072;47.808;7.636;2022-11-06T23:05:56;1.65;;;0.90;;
21030;SDS011;61072;47.808;7.636;2022-11-06T23:08:24;3.35;;;1.42;;
21030;SDS011;61072;47.808;7.636;2022-11-06T23:10:51;1.25;;;1.05;;
21030;SDS011;61072;47.808;7.636;2022-11-06T23:13:21;1.67;;;1.27;;
21030;SDS011;61072;47.808;7.636;2022-11-06T23:15:48;1.75;;;1.08;;
21030;SDS011;61072;47.808;7.636;2022-11-06T23:18:16;3.80;;;1.13;;
21030;SDS011;61072;47.808;7.636;2022-11-06T23:20:43;3.58;;;0.80;;
21030;SDS011;61072;47.808;7.636;2022-11-06T23:23:09;1.85;;;1.08;;
21030;SDS011;61072;47.808;7.636;2022-11-06T23:25:36;3.83;;;1.20;;
21030;SDS011;61072;47.808;7.636;2022-11-06T23:28:03;2.22;;;1.15;;
21030;SDS011;61072;47.808;7.636;2022-11-06T23:30:30;2.38;;;1.00;;
21030;SDS011;61072;47.808;7.636;2022-11-06T23:32:57;1.13;;;0.75;;
21030;SDS011;61072;47.808;7.636;2022-11-06T23:35:24;2.28;;;0.98;;
21030;SDS011;61072;47.808;7.636;2022-11-06T23:37:57;4.25;;;1.02;;
21030;SDS011;61072;47.808;7.636;2022-11-06T23:40:24;0.70;;;0.70;;
21030;SDS011;61072;47.808;7.636;2022-11-06T23:42:51;2.35;;;1.00;;
21030;SDS011;61072;47.808;7.636;2022-11-06T23:45:19;2.42;;;0.88;;
21030;SDS011;61072;47.808;7.636;2022-11-06T23:48:14;2.63;;;0.68;;
21030;SDS011;61072;47.808;7.636;2022-11-06T23:50:41;3.30;;;0.93;;
21030;SDS011;61072;47.808;7.636;2022-11-06T23:53:13;2.38;;;0.85;;
21030;SDS011;61072;47.808;7.636;2022-11-06T23:55:40;3.78;;;0.80;;
21030;SDS011;61072;47.808;7.636;2022-11-06T23:58:07;1.15;;;0.65;;
